Time;durP1;ratioP1;P1;durP2;ratioP2;P2;SDS_P1;SDS_P2;PMS_P1;PMS_P2;Temp;Humidity;BMP_temperature;BMP_pressure;BME280_temperature;BME280_humidity;BME280_pressure;Samples;Min_cycle;Max_cycle;Signal;HPM_P1;HPM_P2
2022/06/30 00:02:16;;;;;;;11.50;10.20;;;;;;;21.91;63.55;100210.84;109071;1270;22215;-81
2022/06/30 00:05:20;;;;;;;12.80;11.70;;;;;;;21.89;63.71;100213.39;108868;1270;22010;-82
2022/06/30 00:08:17;;;;;;;13.40;12.10;;;;;;;21.89;63.87;100225.98;108853;1273;23643;-82
2022/06/30 00:11:08;;;;;;;12.70;11.50;;;;;;;21.89;63.92;100228.09;109449;1267;21989;-80
2022/06/30 00:14:15;;;;;;;13.60;12.30;;;;;;;21.89;64.07;100226.10;108876;1273;23735;-81
2022/06/30 00:17:29;;;;;;;11.90;10.90;;;;;;;21.90;64.17;100224.98;108821;1273;23245;-80
2022/06/30 00:20:39;;;;;;;;;;;;;;;21.89;64.34;100216.02;108554;1279;22097;-80
2022/06/30 00:23:27;;;;;;;13.50;12.20;;;;;;;21.81;64.51;100216.17;108856;1273;22995;-83
2022/06/30 00:26:22;;;;;;;14.20;13.10;;;;;;;21.81;64.63;100215.38;108654;1277;22007;-83
2022/06/30 00:29:18;;;;;;;;;;;;;;;;;;;;;
2022/06/30 00:32:56;;;;;;;;;;;;;;;;;;;;;
2022/06/30 00:36:47;;;;;;;;;;;;;;;;;;;;;
2022/06/30 00:40:23;;;;;;;15.30;13.00;;;;;;;21.90;65.04;100384.66;109728;1282;22012;-81
2022/06/30 00:44:14;;;;;;;17.40;16.00;;;;;;;21.96;65.39;100386.27;109538;1277;22771;-81
2022/06/30 00:48:00;;;;;;;;;;;;;;;;;;;;;
2022/06/30 00:51:08;;;;;;;19.30;17.70;;;;;;;22.13;65.70;100373.46;108934;1276;21992;-80
2022/06/30 00:54:06;;;;;;;19.70;18.00;;;;;;;22.17;65.86;100371.06;108746;1276;21995;-81
2022/06/30 00:57:15;;;;;;;19.80;17.80;;;;;;;22.18;66.20;100352.96;108947;1276;23612;-81
2022/06/30 01:00:32;;;;;;;;;;;;;;;;;;;;;
2022/06/30 01:04:17;;;;;;;;;;;;;;;;;;;;;
2022/06/30 01:07:45;;;;;;;;;;;;;;;;;;;;;
2022/06/30 01:14:58;;;;;;;15.30;13.70;;;;;;;22.17;67.58;100398.89;108067;1288;22019;-80
2022/06/30 01:18:01;;;;;;;18.20;13.70;;;;;;;22.19;67.85;100379.76;107385;1289;22468;-85
2022/06/30 01:20:33;;;;;;;13.50;10.70;;;;;;;22.15;67.83;100383.77;106993;1291;21994;-81
2022/06/30 01:23:10;;;;;;;12.00;8.60;;;;;;;22.07;68.01;100421.18;107487;1289;23145;-78
2022/06/30 01:26:16;;;;;;;;;;;;;;;;;;;;;
2022/06/30 01:29:45;;;;;;;;;;;;;;;;;;;;;
2022/06/30 01:32:38;;;;;;;12.50;7.10;;;;;;;21.60;69.33;100453.04;108394;1291;22122;-81
2022/06/30 01:35:25;;;;;;;;;;;;;;;;;;;;;
2022/06/30 01:38:20;;;;;;;8.00;5.60;;;;;;;21.33;70.31;100416.29;108973;1289;21990;-80
2022/06/30 01:41:19;;;;;;;;;;;;;;;;;;;;;
2022/06/30 01:45:27;;;;;;;10.70;5.70;;;;;;;21.08;71.27;100392.18;109040;1279;21907;-79
2022/06/30 01:48:45;;;;;;;;;;;;;;;;;;;;;
2022/06/30 01:55:07;;;;;;;13.80;9.10;;;;;;;20.68;73.01;100384.52;107044;1299;23830;-81
2022/06/30 02:13:57;;;;;;;;;;;;;;;;;;;;;
2022/06/30 02:17:41;;;;;;;16.70;15.20;;;;;;;21.45;73.28;100310.30;104295;1260;21979;-83
2022/06/30 02:20:52;;;;;;;16.20;14.70;;;;;;;20.92;74.42;100305.10;110944;1260;22304;-83
2022/06/30 02:24:32;;;;;;;17.70;16.10;;;;;;;20.64;75.51;100300.02;109907;1262;22590;-82
2022/06/30 02:32:09;;;;;;;16.60;15.20;;;;;;;20.34;76.86;100293.11;113443;1242;21999;-82
2022/06/30 02:35:14;;;;;;;18.40;16.90;;;;;;;20.20;77.46;100310.81;111544;1248;23612;-82
2022/06/30 02:38:46;;;;;;;;;;;;;;;;;;;;;
2022/06/30 02:42:25;;;;;;;;;;;;;;;;;;;;;
2022/06/30 02:45:57;;;;;;;21.20;19.20;;;;;;;20.07;79.05;100460.73;112551;1244;22655;-80
2022/06/30 02:49:22;;;;;;;;;;;;;;;;;;;;;
2022/06/30 02:53:03;;;;;;;19.00;17.30;;;;;;;20.04;79.34;100530.25;111563;1248;21966;-81
2022/06/30 02:56:41;;;;;;;;;;;;;;;;;;;;;
2022/06/30 03:00:14;;;;;;;16.40;15.10;;;;;;;20.03;80.00;100431.02;112074;1252;22009;-81
2022/06/30 03:03:46;;;;;;;;;;;;;;;;;;;;;
2022/06/30 03:07:11;;;;;;;16.10;14.60;;;;;;;20.03;79.98;100379.15;110068;1260;21990;-82
2022/06/30 03:10:10;;;;;;;15.70;14.50;;;;;;;20.03;79.99;100386.09;110033;1260;22781;-82
2022/06/30 03:13:34;;;;;;;17.50;15.90;;;;;;;19.99;80.15;100378.13;110842;1250;22977;-80
2022/06/30 03:17:10;;;;;;;15.20;14.00;;;;;;;19.92;80.33;100351.70;110370;1257;21980;-80
2022/06/30 03:20:12;;;;;;;16.40;15.00;;;;;;;19.89;80.39;100346.56;110455;1254;22085;-81
2022/06/30 03:23:51;;;;;;;;;;;;;;;;;;;;;
2022/06/30 03:26:50;;;;;;;16.20;14.90;;;;;;;19.79;80.64;100326.52;110883;1254;21986;-81
2022/06/30 03:30:08;;;;;;;15.30;13.90;;;;;;;19.72;80.99;100333.81;110172;1259;22374;-80
2022/06/30 03:33:23;;;;;;;16.90;15.70;;;;;;;19.74;80.98;100342.60;109655;1263;23078;-79
2022/06/30 03:37:21;;;;;;;17.90;16.30;;;;;;;19.74;81.21;100332.30;110089;1258;22572;-80
2022/06/30 03:41:09;;;;;;;;;;;;;;;;;;;;;
2022/06/30 03:44:50;;;;;;;;;;;;;;;;;;;;;
2022/06/30 03:47:50;;;;;;;17.70;16.40;;;;;;;19.57;81.34;100262.07;109841;1257;23735;-80
2022/06/30 03:50:38;;;;;;;;;;;;;;;;;;;;;
2022/06/30 03:54:03;;;;;;;;;;;;;;;;;;;;;
2022/06/30 03:56:48;;;;;;;17.10;15.70;;;;;;;19.52;81.94;100287.66;109873;1263;22009;-79
2022/06/30 03:59:43;;;;;;;;;;;;;;;;;;;;;
2022/06/30 04:03:46;;;;;;;;;;;;;;;;;;;;;
2022/06/30 04:07:02;;;;;;;17.20;15.90;;;;;;;19.65;82.41;100285.88;109563;1264;22004;-82
2022/06/30 04:10:13;;;;;;;;;;;;;;;;;;;;;
2022/06/30 04:13:14;;;;;;;18.20;16.60;;;;;;;19.81;82.52;100270.77;110226;1255;23074;-80
2022/06/30 04:16:39;;;;;;;18.30;16.80;;;;;;;19.84;82.66;100265.02;110723;1251;22445;-79
2022/06/30 04:19:24;;;;;;;18.30;16.90;;;;;;;19.92;82.82;100268.15;110921;1252;22043;-80
2022/06/30 04:23:03;;;;;;;20.10;18.70;;;;;;;19.95;82.63;100271.35;110899;1251;21980;-79
2022/06/30 04:29:38;;;;;;;15.70;14.50;;;;;;;20.10;82.87;100270.88;111626;1245;23182;-79
2022/06/30 04:34:10;;;;;;;16.30;15.00;;;;;;;20.19;82.76;100264.61;111194;1232;22000;31
2022/06/30 04:37:20;;;;;;;;;;;;;;;;;;;;;
2022/06/30 04:44:34;;;;;;;16.90;15.40;;;;;;;20.48;82.61;100235.89;111908;1246;21988;-87
2022/06/30 04:47:36;;;;;;;17.30;15.60;;;;;;;20.60;82.27;100223.90;110889;1254;21956;-86
2022/06/30 04:50:06;;;;;;;18.10;16.60;;;;;;;20.64;81.69;100218.92;111010;1254;21989;-83
2022/06/30 04:56:23;;;;;;;16.40;15.10;;;;;;;20.72;81.32;100201.96;114671;1228;21915;-86
2022/06/30 05:00:07;;;;;;;15.50;14.20;;;;;;;20.73;80.78;100195.55;114257;1231;21990;-84
2022/06/30 05:02:50;;;;;;;16.10;14.40;;;;;;;20.73;80.53;100192.86;112659;1247;21998;-83
2022/06/30 05:05:22;;;;;;;16.40;14.70;;;;;;;20.83;80.45;100194.34;112220;1247;21987;-80
2022/06/30 05:08:09;;;;;;;14.10;13.00;;;;;;;20.88;80.16;100191.77;111654;1247;21934;-79
2022/06/30 05:10:42;;;;;;;13.70;12.50;;;;;;;20.98;80.11;100201.29;110972;1247;21978;-76
2022/06/30 05:13:10;;;;;;;14.30;13.00;;;;;;;21.04;79.70;100209.46;110965;1248;23111;-77
2022/06/30 05:15:45;;;;;;;12.70;11.50;;;;;;;21.07;79.39;100215.67;111150;1248;23679;-80
2022/06/30 05:18:17;;;;;;;11.60;10.50;;;;;;;21.09;79.21;100226.47;111184;1247;23565;-75
2022/06/30 05:20:54;;;;;;;20.00;12.90;;;;;;;21.11;78.92;100237.40;111479;1241;21935;-81
2022/06/30 05:23:29;;;;;;;11.00;10.10;;;;;;;21.15;78.54;100245.21;110854;1247;23094;-75
2022/06/30 05:29:36;;;;;;;12.20;11.20;;;;;;;21.24;78.44;100250.96;111580;1244;21984;-78
2022/06/30 05:32:07;;;;;;;11.30;10.20;;;;;;;21.27;77.94;100250.77;112045;1244;21997;-78
2022/06/30 05:39:21;;;;;;;;;;;;;;;;;;;;;
2022/06/30 05:42:20;;;;;;;11.40;10.50;;;;;;;21.55;77.41;100264.84;109884;1266;21984;-81
2022/06/30 05:45:01;;;;;;;10.50;9.60;;;;;;;21.64;77.56;100267.03;109868;1266;22032;-80
2022/06/30 05:47:55;;;;;;;9.20;8.30;;;;;;;21.73;77.63;100270.30;111143;1257;22009;-79
2022/06/30 05:50:30;;;;;;;12.80;11.70;;;;;;;21.95;77.90;100272.45;110389;1254;21961;-78
2022/06/30 05:53:00;;;;;;;10.10;8.50;;;;;;;22.14;77.62;100268.40;109267;1260;844731;-79
2022/06/30 05:55:34;;;;;;;10.10;9.10;;;;;;;22.34;77.00;100268.06;109148;1268;22094;-78
2022/06/30 05:58:13;;;;;;;10.70;9.80;;;;;;;22.55;76.68;100268.89;109164;1266;22051;-77
2022/06/30 06:00:45;;;;;;;9.00;8.10;;;;;;;22.78;76.35;100264.28;109250;1266;21973;-77
2022/06/30 06:03:16;;;;;;;9.00;8.20;;;;;;;23.00;75.54;100258.30;108984;1266;22105;-77
2022/06/30 06:05:46;;;;;;;9.60;7.10;;;;;;;23.22;74.83;100263.58;109148;1266;21996;-77
2022/06/30 06:08:24;;;;;;;7.20;6.50;;;;;;;23.46;74.29;100269.52;109166;1265;23107;-78
2022/06/30 06:10:58;;;;;;;8.80;8.00;;;;;;;23.61;72.93;100269.73;109642;1260;22108;-78
2022/06/30 06:13:30;;;;;;;7.90;6.70;;;;;;;23.82;72.38;100267.13;109623;1260;21982;-77
2022/06/30 06:15:59;;;;;;;9.50;5.90;;;;;;;23.99;71.06;100263.11;108922;1267;21998;-77
2022/06/30 06:18:28;;;;;;;7.20;6.50;;;;;;;24.06;70.23;100268.88;109359;1264;22021;-78
2022/06/30 06:21:02;;;;;;;8.50;6.90;;;;;;;24.26;70.35;100282.89;110198;1255;23678;-78
2022/06/30 06:23:51;;;;;;;6.90;6.30;;;;;;;24.57;69.98;100295.90;110242;1257;21966;-78
2022/06/30 06:26:26;;;;;;;11.20;10.10;;;;;;;24.71;68.23;100299.66;109984;1259;23035;-79
2022/06/30 06:29:13;;;;;;;7.50;5.90;;;;;;;24.82;67.35;100299.65;109863;1259;23037;-77
2022/06/30 06:31:43;;;;;;;9.00;6.70;;;;;;;24.95;66.76;100300.23;109316;1264;23984;-78
2022/06/30 06:34:18;;;;;;;8.60;5.60;;;;;;;25.02;66.03;100297.02;109250;1264;23147;-78
2022/06/30 06:36:49;;;;;;;7.60;6.30;;;;;;;25.12;65.84;100302.42;109222;1264;23479;-80
2022/06/30 06:39:20;;;;;;;6.70;6.00;;;;;;;25.23;65.48;100301.83;109426;1267;21984;-78
2022/06/30 06:41:50;;;;;;;6.30;5.70;;;;;;;25.48;66.01;100304.10;109580;1259;21976;-78
2022/06/30 06:44:31;;;;;;;7.30;6.40;;;;;;;25.80;65.70;100303.95;110082;1253;22506;-79
2022/06/30 06:47:06;;;;;;;6.40;5.70;;;;;;;26.15;64.66;100299.67;110518;1253;21975;-78
2022/06/30 06:49:54;;;;;;;6.50;6.00;;;;;;;26.38;62.53;100298.12;110412;1250;23599;-78
2022/06/30 06:52:28;;;;;;;7.40;6.60;;;;;;;26.50;61.74;100290.27;110964;1251;21968;-78
2022/06/30 06:55:08;;;;;;;9.40;5.60;;;;;;;26.65;61.80;100287.39;110487;1254;21956;-79
2022/06/30 06:57:43;;;;;;;7.00;6.20;;;;;;;26.85;61.67;100290.15;110352;1254;21984;-80
2022/06/30 07:00:17;;;;;;;8.40;6.30;;;;;;;26.95;60.59;100289.67;110386;1256;21961;-77
2022/06/30 07:03:00;;;;;;;6.60;6.10;;;;;;;27.10;60.30;100289.45;110485;1256;21986;-76
2022/06/30 07:05:29;;;;;;;9.50;6.60;;;;;;;27.23;60.40;100293.35;110038;1260;22792;-75
2022/06/30 07:08:03;;;;;;;8.40;7.50;;;;;;;27.30;59.70;100297.87;109606;1260;25063;-76
2022/06/30 07:10:32;;;;;;;8.40;6.30;;;;;;;27.26;58.56;100298.43;109896;1260;22057;-75
2022/06/30 07:13:01;;;;;;;9.50;6.80;;;;;;;27.23;58.81;100296.66;110112;1256;22645;-75
2022/06/30 07:15:31;;;;;;;7.30;6.70;;;;;;;27.30;59.42;100292.82;110305;1254;23961;-76
2022/06/30 07:18:00;;;;;;;8.10;7.30;;;;;;;27.40;58.90;100292.77;110371;1254;21962;-75
2022/06/30 07:20:29;;;;;;;7.10;6.50;;;;;;;27.45;58.36;100287.95;110287;1254;22029;-76
2022/06/30 07:22:58;;;;;;;8.60;7.60;;;;;;;27.53;58.25;100295.23;110310;1250;23885;-76
2022/06/30 07:25:53;;;;;;;7.50;6.70;;;;;;;27.46;57.97;100287.89;110872;1250;22728;-77
2022/06/30 07:28:27;;;;;;;8.10;7.50;;;;;;;27.50;58.23;100285.15;110908;1249;24112;-77
2022/06/30 07:31:20;;;;;;;9.00;7.20;;;;;;;27.42;57.26;100280.59;110875;1250;22759;-77
2022/06/30 07:33:54;;;;;;;9.20;7.90;;;;;;;27.38;57.87;100276.06;110860;1250;21963;-77
2022/06/30 07:36:23;;;;;;;8.10;6.70;;;;;;;27.35;57.73;100275.81;111004;1250;22121;-77
2022/06/30 07:38:52;;;;;;;10.10;7.80;;;;;;;27.45;58.41;100273.70;110789;1250;23047;-77
2022/06/30 07:41:23;;;;;;;8.20;6.70;;;;;;;27.69;58.52;100269.38;110777;1250;21982;-77
2022/06/30 07:43:54;;;;;;;7.70;6.80;;;;;;;27.99;57.99;100260.35;111003;1250;22328;-77
2022/06/30 07:46:25;;;;;;;8.10;7.30;;;;;;;28.18;56.62;100259.37;110820;1248;24450;-76
2022/06/30 07:49:00;;;;;;;8.50;7.30;;;;;;;28.33;56.50;100259.65;110942;1250;22726;-77
2022/06/30 07:51:30;;;;;;;7.80;6.80;;;;;;;28.41;55.53;100260.73;110932;1250;23644;-77
2022/06/30 07:54:01;;;;;;;7.90;7.10;;;;;;;28.47;55.41;100258.92;110197;1256;23030;-77
2022/06/30 07:56:34;;;;;;;7.90;7.20;;;;;;;28.50;54.79;100261.55;110390;1255;22007;-77
2022/06/30 07:59:03;;;;;;;7.60;6.90;;;;;;;28.47;54.14;100260.50;110366;1256;22317;-77
2022/06/30 08:01:36;;;;;;;9.20;8.30;;;;;;;28.41;53.85;100264.26;110220;1256;22087;-75
2022/06/30 08:04:12;;;;;;;8.40;7.70;;;;;;;28.32;53.65;100262.10;109720;1260;23637;-76
2022/06/30 08:06:46;;;;;;;8.90;7.50;;;;;;;28.39;53.82;100261.60;109699;1261;24290;-77
2022/06/30 08:09:15;;;;;;;8.90;8.10;;;;;;;28.43;53.46;100260.76;109163;1267;23726;-77
2022/06/30 08:11:47;;;;;;;7.40;6.80;;;;;;;28.41;53.79;100255.34;109158;1267;21975;-80
2022/06/30 08:14:16;;;;;;;9.10;8.30;;;;;;;28.53;53.43;100255.54;108969;1267;21978;-77
2022/06/30 08:16:50;;;;;;;9.00;8.20;;;;;;;28.61;52.78;100259.34;109156;1267;23579;-76
2022/06/30 08:19:20;;;;;;;11.60;8.40;;;;;;;28.66;52.46;100248.74;109324;1260;24559;-76
2022/06/30 08:21:49;;;;;;;8.40;7.50;;;;;;;28.60;51.66;100250.55;110031;1256;21975;-77
2022/06/30 08:24:18;;;;;;;9.70;8.80;;;;;;;28.33;51.67;100251.49;110339;1256;22044;-76
2022/06/30 08:26:48;;;;;;;9.70;8.90;;;;;;;28.01;51.92;100255.28;110545;1256;22027;-77
2022/06/30 08:29:17;;;;;;;11.60;9.10;;;;;;;27.69;52.53;100255.61;110300;1256;22027;-76
2022/06/30 08:31:46;;;;;;;10.40;9.50;;;;;;;27.40;53.36;100253.48;110323;1256;21950;-77
2022/06/30 08:34:15;;;;;;;10.00;9.20;;;;;;;27.21;54.19;100244.77;110612;1251;23034;-77
2022/06/30 08:36:45;;;;;;;9.60;8.60;;;;;;;27.20;55.25;100242.17;110741;1250;24431;-77
2022/06/30 08:42:04;;;;;;;9.10;8.40;;;;;;;27.58;54.82;100247.77;110883;1250;23022;-77
2022/06/30 08:44:36;;;;;;;9.10;8.10;;;;;;;27.64;54.44;100248.36;111058;1250;23042;-77
2022/06/30 08:47:08;;;;;;;14.90;8.60;;;;;;;27.76;54.88;100254.38;111022;1248;21954;-78
2022/06/30 08:49:38;;;;;;;9.70;8.80;;;;;;;27.92;54.89;100254.13;110918;1250;22979;-77
2022/06/30 08:52:10;;;;;;;8.90;8.20;;;;;;;28.12;54.44;100260.30;110921;1249;21955;-77
2022/06/30 08:54:39;;;;;;;8.90;8.10;;;;;;;28.36;54.13;100261.41;110611;1251;21971;-76
2022/06/30 08:57:09;;;;;;;9.70;8.50;;;;;;;28.66;53.76;100265.92;110803;1249;24278;-76
2022/06/30 08:59:41;;;;;;;14.00;12.70;;;;;;;28.90;52.90;100261.23;110958;1250;23452;-77
2022/06/30 09:02:11;;;;;;;11.00;8.40;;;;;;;29.05;52.42;100260.39;111057;1250;22021;-79
2022/06/30 09:04:41;;;;;;;9.30;8.40;;;;;;;29.13;51.59;100257.78;110379;1254;22030;-76
2022/06/30 09:07:11;;;;;;;10.30;9.50;;;;;;;29.12;51.49;100251.38;110409;1254;21924;-76
2022/06/30 09:09:41;;;;;;;11.50;10.40;;;;;;;29.27;51.91;100251.96;110629;1254;22090;-77
2022/06/30 09:12:16;;;;;;;10.10;9.30;;;;;;;29.57;52.13;100249.84;110672;1254;22735;-78
2022/06/30 09:14:49;;;;;;;15.70;10.30;;;;;;;29.88;50.71;100250.05;110594;1254;22030;-80
2022/06/30 09:17:25;;;;;;;14.10;9.10;;;;;;;29.93;49.56;100247.82;110609;1254;23001;-77
2022/06/30 09:20:04;;;;;;;9.60;8.80;;;;;;;30.12;50.30;100241.94;110399;1255;21936;-76
2022/06/30 09:22:39;;;;;;;8.80;8.10;;;;;;;30.39;49.29;100242.64;110650;1250;21932;-79
2022/06/30 09:25:14;;;;;;;9.00;8.10;;;;;;;30.59;48.24;100235.59;110605;1250;23674;-79
2022/06/30 09:27:47;;;;;;;8.10;7.40;;;;;;;30.62;47.62;100233.02;110696;1250;22554;-78
2022/06/30 09:30:23;;;;;;;9.10;8.40;;;;;;;30.76;48.23;100238.39;110830;1250;21965;-80
2022/06/30 09:33:05;;;;;;;8.60;7.70;;;;;;;31.09;47.97;100241.63;110407;1255;22100;-76
2022/06/30 09:35:56;;;;;;;9.20;8.30;;;;;;;31.33;47.35;100242.83;110432;1256;22003;-77
2022/06/30 09:38:30;;;;;;;8.70;7.90;;;;;;;31.53;46.87;100243.39;110339;1256;22928;-77
2022/06/30 09:41:04;;;;;;;9.00;7.90;;;;;;;31.68;46.70;100240.26;110194;1256;22864;-76
2022/06/30 09:43:43;;;;;;;8.80;8.00;;;;;;;31.93;46.75;100239.13;110566;1256;23734;-76
2022/06/30 09:46:12;;;;;;;9.20;8.40;;;;;;;32.01;45.12;100237.98;110255;1256;21970;-77
2022/06/30 09:48:42;;;;;;;9.10;8.30;;;;;;;31.81;44.42;100237.96;109585;1262;22041;-79
2022/06/30 09:51:12;;;;;;;9.20;8.50;;;;;;;31.64;44.58;100231.99;109261;1260;22066;-77
2022/06/30 09:53:41;;;;;;;8.80;8.10;;;;;;;31.48;44.85;100225.44;109956;1259;21997;-78
2022/06/30 09:56:16;;;;;;;8.50;7.70;;;;;;;31.34;45.01;100222.66;109630;1262;21975;-78
2022/06/30 09:58:49;;;;;;;13.60;8.60;;;;;;;31.12;45.05;100220.86;110066;1263;21987;-76
2022/06/30 10:01:25;;;;;;;9.30;8.50;;;;;;;30.93;46.24;100219.56;109957;1264;21987;-76
2022/06/30 10:04:21;;;;;;;9.20;8.40;;;;;;;31.06;46.67;100217.48;109289;1269;22002;-77
2022/06/30 10:07:19;;;;;;;9.90;9.10;;;;;;;31.25;46.35;100216.42;109265;1270;22006;-76
2022/06/30 10:10:32;;;;;;;14.20;12.20;;;;;;;31.41;45.48;100215.15;109463;1266;22093;-77
2022/06/30 10:13:17;;;;;;;9.60;8.80;;;;;;;31.58;45.57;100214.71;110082;1264;23714;-77
2022/06/30 10:15:55;;;;;;;9.70;9.00;;;;;;;31.73;45.49;100208.73;110030;1259;21982;-78
2022/06/30 10:18:27;;;;;;;8.90;8.20;;;;;;;31.85;45.31;100205.14;109519;1264;22005;-78
2022/06/30 10:20:58;;;;;;;9.00;8.20;;;;;;;31.99;44.85;100203.42;109114;1265;22059;-77
2022/06/30 10:23:32;;;;;;;11.50;9.00;;;;;;;32.23;44.93;100207.00;110118;1260;23627;-81
2022/06/30 10:27:11;;;;;;;9.20;8.40;;;;;;;32.38;43.62;100205.99;111206;1254;22756;-79
2022/06/30 10:29:10;;;;;;;9.90;8.80;;;;;;;32.16;43.47;100199.45;111587;1253;22026;-84
2022/06/30 10:31:48;;;;;;;9.30;8.50;;;;;;;32.10;43.85;100196.23;109483;1259;22472;-75
2022/06/30 10:34:33;;;;;;;9.50;8.70;;;;;;;32.16;44.14;100197.20;109696;1259;21986;-76
2022/06/30 10:37:26;;;;;;;8.60;8.00;;;;;;;32.24;43.69;100195.00;110179;1253;21957;-77
2022/06/30 10:40:15;;;;;;;10.00;9.00;;;;;;;32.30;44.17;100197.73;110706;1253;23582;-75
2022/06/30 10:42:58;;;;;;;10.70;9.50;;;;;;;32.40;43.64;100201.95;110093;1259;22795;-78
2022/06/30 10:46:13;;;;;;;9.50;8.60;;;;;;;32.34;43.14;100198.98;110495;1259;22052;-75
2022/06/30 10:48:55;;;;;;;18.00;10.10;;;;;;;32.24;43.42;100189.34;110745;1259;21975;-77
2022/06/30 10:51:41;;;;;;;9.80;8.90;;;;;;;32.23;43.53;100188.77;111471;1253;22063;-76
2022/06/30 10:54:45;;;;;;;;;;;;;;;;;;;;;
2022/06/30 10:57:27;;;;;;;9.70;8.80;;;;;;;32.15;43.21;100186.73;111738;1252;21967;-76
2022/06/30 11:01:04;;;;;;;9.20;8.30;;;;;;;31.92;43.45;100180.14;110882;1250;23051;-74
2022/06/30 11:04:07;;;;;;;9.80;8.90;;;;;;;31.73;44.15;100175.35;111755;1253;23682;-78
2022/06/30 11:07:12;;;;;;;10.40;9.50;;;;;;;31.73;44.43;100177.09;111104;1259;21982;-75
2022/06/30 11:09:49;;;;;;;9.50;8.70;;;;;;;31.58;44.08;100175.08;109555;1264;23003;-76
2022/06/30 11:12:31;;;;;;;9.40;8.50;;;;;;;31.42;44.17;100173.41;109749;1263;21987;-77
2022/06/30 11:15:00;;;;;;;9.20;8.00;;;;;;;31.32;44.83;100171.46;109446;1264;23034;-77
2022/06/30 11:17:36;;;;;;;9.10;8.30;;;;;;;31.31;44.85;100168.59;109543;1263;21988;-73
2022/06/30 11:20:13;;;;;;;10.00;9.10;;;;;;;31.26;44.35;100170.12;109272;1263;21937;-77
2022/06/30 11:22:47;;;;;;;12.30;10.30;;;;;;;31.24;44.36;100168.92;109916;1260;23606;-76
2022/06/30 11:28:15;;;;;;;12.20;9.80;;;;;;;31.28;44.69;100160.20;109770;1259;22013;-76
2022/06/30 11:30:45;;;;;;;11.30;8.90;;;;;;;31.35;44.94;100159.07;110217;1253;21970;-76
2022/06/30 11:33:18;;;;;;;11.10;9.60;;;;;;;31.42;45.01;100157.35;110512;1254;23829;-75
2022/06/30 11:36:07;;;;;;;10.80;9.60;;;;;;;31.46;44.87;100152.63;110110;1259;22052;-77
2022/06/30 11:38:38;;;;;;;9.50;8.70;;;;;;;31.47;44.52;100155.78;110157;1260;22897;-75
2022/06/30 11:44:00;;;;;;;10.00;9.10;;;;;;;31.39;44.76;100144.71;109562;1260;23788;-75
2022/06/30 11:46:57;;;;;;;9.80;9.00;;;;;;;31.38;44.28;100145.29;110025;1260;21979;-77
2022/06/30 11:49:51;;;;;;;10.90;9.90;;;;;;;31.31;44.17;100142.89;109751;1261;21984;-77
2022/06/30 11:52:55;;;;;;;13.30;12.10;;;;;;;31.32;44.43;100137.25;111066;1252;21966;-77
2022/06/30 11:55:28;;;;;;;10.50;9.60;;;;;;;31.37;44.33;100141.91;109676;1263;21976;-79
2022/06/30 11:58:00;;;;;;;12.80;10.60;;;;;;;31.35;43.59;100145.30;109685;1264;22154;-78
2022/06/30 12:00:31;;;;;;;9.30;8.30;;;;;;;31.28;43.25;100149.88;109613;1260;21988;-77
2022/06/30 12:03:01;;;;;;;11.30;8.80;;;;;;;31.26;43.36;100147.75;109706;1260;22243;-77
2022/06/30 12:05:32;;;;;;;10.10;9.10;;;;;;;31.28;43.47;100145.66;109530;1258;22039;-78
2022/06/30 12:08:04;;;;;;;8.70;7.90;;;;;;;31.35;43.54;100142.79;110070;1257;22172;-77
2022/06/30 12:10:35;;;;;;;9.00;8.20;;;;;;;31.46;43.64;100144.55;110455;1257;23685;-77
2022/06/30 12:13:04;;;;;;;11.90;10.90;;;;;;;31.48;43.06;100141.33;109848;1255;21976;-76
2022/06/30 12:15:36;;;;;;;9.70;8.70;;;;;;;31.45;43.19;100140.70;110532;1255;22010;-76
2022/06/30 12:18:06;;;;;;;9.60;8.70;;;;;;;31.46;43.51;100134.70;109587;1263;24300;-75
2022/06/30 12:20:36;;;;;;;10.00;7.70;;;;;;;31.51;43.48;100129.23;109650;1263;22766;-75
2022/06/30 12:23:08;;;;;;;8.70;8.00;;;;;;;31.50;43.26;100126.20;109883;1263;21982;-76
2022/06/30 12:25:37;;;;;;;8.80;7.90;;;;;;;31.51;43.22;100120.98;109580;1261;22049;-76
2022/06/30 12:28:06;;;;;;;9.80;8.00;;;;;;;31.57;43.33;100119.40;109937;1261;22008;-76
2022/06/30 12:30:38;;;;;;;11.30;9.00;;;;;;;31.62;42.91;100120.05;109636;1260;23088;-75
2022/06/30 12:33:08;;;;;;;11.30;7.80;;;;;;;31.67;42.31;100121.28;110685;1249;21972;-75
2022/06/30 12:35:38;;;;;;;8.70;7.90;;;;;;;31.64;41.97;100119.92;110850;1249;22204;-76
2022/06/30 12:38:20;;;;;;;8.80;8.10;;;;;;;31.62;41.64;100116.86;111015;1249;21958;-76
2022/06/30 12:40:49;;;;;;;8.00;7.30;;;;;;;31.56;41.35;100116.10;111054;1249;22056;-75
2022/06/30 12:43:22;;;;;;;7.40;6.70;;;;;;;31.58;41.37;100113.54;111382;1244;23632;-75
2022/06/30 12:46:00;;;;;;;7.70;7.10;;;;;;;31.60;41.30;100115.88;111882;1241;21947;-79
2022/06/30 12:48:41;;;;;;;;;;;;;;;31.65;41.01;100117.70;111905;1241;21950;-75
2022/06/30 12:51:16;;;;;;;5.80;5.30;;;;;;;31.62;39.93;100113.64;111955;1241;21912;-77
2022/06/30 12:53:46;;;;;;;11.50;10.50;;;;;;;31.66;39.24;100116.04;111439;1244;21996;-74
2022/06/30 12:56:19;;;;;;;7.80;7.00;;;;;;;31.70;40.19;100113.78;111590;1244;23658;-74
2022/06/30 12:59:02;;;;;;;11.20;7.90;;;;;;;31.68;40.51;100114.89;111587;1244;23697;-75
2022/06/30 13:01:44;;;;;;;6.50;6.00;;;;;;;31.69;40.30;100110.08;111612;1243;21992;-75
2022/06/30 13:04:16;;;;;;;7.60;6.50;;;;;;;31.67;39.98;100110.13;111249;1247;22723;-74
2022/06/30 13:06:48;;;;;;;7.20;6.00;;;;;;;31.65;39.89;100113.56;111265;1247;22576;-74
2022/06/30 13:09:21;;;;;;;6.90;6.00;;;;;;;31.66;39.75;100115.08;111227;1247;22746;-77
2022/06/30 13:11:57;;;;;;;6.90;6.10;;;;;;;31.67;39.51;100115.21;111304;1246;22495;-76
2022/06/30 13:14:30;;;;;;;7.20;6.20;;;;;;;31.67;39.21;100110.52;111107;1246;21964;-74
2022/06/30 13:17:00;;;;;;;7.90;7.10;;;;;;;31.66;39.14;100107.10;111295;1247;21966;-78
2022/06/30 13:19:32;;;;;;;;;;;;;;;31.64;39.00;100107.14;111346;1246;21967;-74
2022/06/30 13:22:03;;;;;;;7.90;6.20;;;;;;;31.59;39.15;100106.86;111553;1241;22407;-74
2022/06/30 13:24:34;;;;;;;7.80;7.10;;;;;;;31.59;39.36;100097.45;111715;1244;21947;-74
2022/06/30 13:27:05;;;;;;;10.10;7.60;;;;;;;31.60;39.76;100092.34;111905;1241;22029;-74
2022/06/30 13:29:35;;;;;;;10.90;7.20;;;;;;;31.61;40.02;100098.39;111657;1241;23690;-76
2022/06/30 13:32:05;;;;;;;;;;;;;;;31.61;39.88;100099.03;111044;1247;21965;-73
2022/06/30 13:34:34;;;;;;;7.80;7.10;;;;;;;31.54;40.02;100099.34;111100;1247;24355;-73
2022/06/30 13:37:03;;;;;;;10.40;7.80;;;;;;;31.55;40.38;100097.14;111363;1246;22841;-75
2022/06/30 13:39:32;;;;;;;9.40;8.10;;;;;;;31.59;40.41;100092.17;111073;1246;22238;-73
2022/06/30 13:42:01;;;;;;;8.40;7.10;;;;;;;31.58;40.62;100094.27;111025;1246;22019;-74
2022/06/30 13:44:31;;;;;;;8.60;7.80;;;;;;;31.55;41.04;100094.77;111025;1246;23647;-73
2022/06/30 13:47:00;;;;;;;8.20;7.30;;;;;;;31.56;41.06;100098.72;111264;1246;21968;-72
2022/06/30 13:49:29;;;;;;;8.00;7.20;;;;;;;31.59;41.23;100096.20;111305;1244;21947;-73
2022/06/30 13:51:58;;;;;;;8.50;7.80;;;;;;;31.61;41.11;100096.14;111440;1243;22082;-73
2022/06/30 13:54:27;;;;;;;9.10;8.40;;;;;;;31.63;40.95;100095.82;111307;1243;21977;-76
2022/06/30 13:56:56;;;;;;;9.30;7.50;;;;;;;31.63;40.80;100092.27;111652;1244;22131;-73
2022/06/30 13:59:29;;;;;;;7.60;6.90;;;;;;;31.63;40.81;100089.91;111646;1241;23563;-75
2022/06/30 14:02:00;;;;;;;10.30;7.80;;;;;;;31.64;40.57;100094.10;111749;1244;22038;-77
2022/06/30 14:04:42;;;;;;;8.30;7.50;;;;;;;31.64;40.42;100091.59;112061;1243;21946;-74
2022/06/30 14:07:18;;;;;;;7.50;6.90;;;;;;;31.64;40.40;100084.98;111928;1244;22228;-77
2022/06/30 14:09:48;;;;;;;7.80;7.10;;;;;;;31.67;40.11;100084.50;111687;1244;23603;-76
2022/06/30 14:12:21;;;;;;;7.90;7.00;;;;;;;31.70;39.92;100083.23;110958;1247;21950;-76
2022/06/30 14:14:50;;;;;;;7.10;6.50;;;;;;;31.72;39.86;100080.76;111371;1247;23069;-76
2022/06/30 14:17:32;;;;;;;7.80;7.00;;;;;;;31.73;39.89;100080.02;111544;1244;21974;-74
2022/06/30 14:20:23;;;;;;;7.90;7.10;;;;;;;31.73;39.66;100084.20;111277;1247;21985;-74
2022/06/30 14:22:57;;;;;;;15.10;8.10;;;;;;;31.72;39.59;100078.80;111601;1247;21970;-75